MMPR

Licenciado Gustavo Díaz Ordaz International Airport

Puerto Vallarta, Mexico
TAF MMPR 172325Z 1800/1906 00000KT P6SM BKN140 OVC270 TX26/1820Z TN20/1812Z FM181600 32010KT P6SM BKN120 OVC270 BECMG 1902/1903 00000KT
Issued Valid From Valid To
Jan-17 @ 23:25 UTC
(23 minutes ago)
Jan-18 @ 00:00 UTC
(in 12 minutes)
Jan-19 @ 06:00 UTC
(-1 days ago)
Jan-18 @ 00:00 to Jan-18 @ 16:00
TAF MMPR 172325Z 1800/1906 00000KT P6SM BKN140 OVC270 TX26/1820Z TN20/1812Z
Visibility Clouds
Greater than 6 miles
  • Broken at 14,000' AGL
  • Overcast at 27,000' AGL
From Jan-18 @ 16:00 to Jan-19 @ 02:00
FM181600 32010KT P6SM BKN120 OVC270
Wind Visibility Clouds
320° at 10 knots Greater than 6 miles
  • Broken at 12,000' AGL
  • Overcast at 27,000' AGL
Becoming Jan-19 @ 02:00 to Jan-19 @ 06:00
BECMG 1902/1903 00000KT
Visibility Clouds
Greater than 6 miles
  • Broken at 12,000' AGL
  • Overcast at 27,000' AGL
TAF MMPR 172325Z 1800/1906 00000KT P6SM BKN140 OVC270 TX26/1820Z TN20/1812Z FM181600 32010KT P6SM BKN120 OVC270 BECMG 1902/1903 00000KT
Issued Jan-17 @ 23:25 UTC
(23 minutes ago)
Valid From Jan-18 @ 00:00 UTC
(in 12 minutes)
Valid To Jan-19 @ 06:00 UTC
(-1 days ago)
Jan-18 @ 00:00 - Jan-18 @ 16:00
Clouds
  • Broken at 14,000' AGL
  • Overcast at 27,000' AGL
From Jan-18 @ 16:00 - Jan-19 @ 02:00
Wind Visibility
320° at 10 knots Greater than 6 miles
Clouds
  • Broken at 12,000' AGL
  • Overcast at 27,000' AGL
Becoming Jan-19 @ 02:00 - Jan-19 @ 06:00
Clouds
  • Broken at 12,000' AGL
  • Overcast at 27,000' AGL